sensor_id;sensor_type;location;lat;lon;timestamp;P1;durP1;ratioP1;P2;durP2;ratioP2
20154;SDS011;10238;49.556;10.956;2023-03-12T00:01:21;5.57;;;4.30;;
20154;SDS011;10238;49.556;10.956;2023-03-12T00:04:16;6.65;;;4.78;;
20154;SDS011;10238;49.556;10.956;2023-03-12T00:07:04;7.25;;;4.95;;
20154;SDS011;10238;49.556;10.956;2023-03-12T00:09:53;7.82;;;4.65;;
20154;SDS011;10238;49.556;10.956;2023-03-12T00:12:41;8.20;;;4.72;;
20154;SDS011;10238;49.556;10.956;2023-03-12T00:15:29;10.20;;;4.60;;
20154;SDS011;10238;49.556;10.956;2023-03-12T00:18:17;7.13;;;4.75;;
20154;SDS011;10238;49.556;10.956;2023-03-12T00:21:06;8.60;;;4.40;;
20154;SDS011;10238;49.556;10.956;2023-03-12T00:23:55;7.80;;;4.72;;
20154;SDS011;10238;49.556;10.956;2023-03-12T00:26:43;8.75;;;5.38;;
20154;SDS011;10238;49.556;10.956;2023-03-12T00:29:31;9.80;;;5.05;;
20154;SDS011;10238;49.556;10.956;2023-03-12T00:32:19;6.18;;;4.60;;
20154;SDS011;10238;49.556;10.956;2023-03-12T00:35:07;8.07;;;4.68;;
20154;SDS011;10238;49.556;10.956;2023-03-12T00:37:57;7.70;;;5.10;;
20154;SDS011;10238;49.556;10.956;2023-03-12T00:40:45;6.55;;;4.82;;
20154;SDS011;10238;49.556;10.956;2023-03-12T00:43:33;6.93;;;5.13;;
20154;SDS011;10238;49.556;10.956;2023-03-12T00:46:22;8.20;;;5.10;;
20154;SDS011;10238;49.556;10.956;2023-03-12T00:49:10;6.53;;;4.63;;
20154;SDS011;10238;49.556;10.956;2023-03-12T00:52:00;8.13;;;5.00;;
20154;SDS011;10238;49.556;10.956;2023-03-12T00:54:53;7.90;;;4.55;;
20154;SDS011;10238;49.556;10.956;2023-03-12T00:57:43;6.40;;;4.53;;
20154;SDS011;10238;49.556;10.956;2023-03-12T01:00:31;7.68;;;4.97;;
20154;SDS011;10238;49.556;10.956;2023-03-12T01:03:21;9.63;;;5.25;;
20154;SDS011;10238;49.556;10.956;2023-03-12T01:06:10;7.68;;;5.00;;
20154;SDS011;10238;49.556;10.956;2023-03-12T01:08:58;8.80;;;5.22;;
20154;SDS011;10238;49.556;10.956;2023-03-12T01:11:49;8.23;;;5.28;;
20154;SDS011;10238;49.556;10.956;2023-03-12T01:14:39;6.90;;;4.72;;
20154;SDS011;10238;49.556;10.956;2023-03-12T01:17:29;8.07;;;5.05;;
20154;SDS011;10238;49.556;10.956;2023-03-12T01:20:18;6.80;;;5.13;;
20154;SDS011;10238;49.556;10.956;2023-03-12T01:23:07;6.40;;;4.70;;
20154;SDS011;10238;49.556;10.956;2023-03-12T01:25:56;8.75;;;5.80;;
20154;SDS011;10238;49.556;10.956;2023-03-12T01:28:50;7.93;;;5.03;;
20154;SDS011;10238;49.556;10.956;2023-03-12T01:31:38;8.63;;;5.20;;
20154;SDS011;10238;49.556;10.956;2023-03-12T01:34:27;7.63;;;5.18;;
20154;SDS011;10238;49.556;10.956;2023-03-12T01:37:15;9.88;;;6.28;;
20154;SDS011;10238;49.556;10.956;2023-03-12T01:40:10;8.93;;;5.65;;
20154;SDS011;10238;49.556;10.956;2023-03-12T01:43:14;10.63;;;5.25;;
20154;SDS011;10238;49.556;10.956;2023-03-12T01:49:23;7.72;;;4.43;;
20154;SDS011;10238;49.556;10.956;2023-03-12T01:52:17;6.85;;;4.97;;
20154;SDS011;10238;49.556;10.956;2023-03-12T01:55:11;9.10;;;5.55;;
20154;SDS011;10238;49.556;10.956;2023-03-12T01:58:07;8.88;;;4.80;;
20154;SDS011;10238;49.556;10.956;2023-03-12T02:00:58;9.95;;;5.32;;
20154;SDS011;10238;49.556;10.956;2023-03-12T02:03:52;6.00;;;4.72;;
20154;SDS011;10238;49.556;10.956;2023-03-12T02:06:48;8.70;;;5.25;;
20154;SDS011;10238;49.556;10.956;2023-03-12T02:09:40;7.95;;;5.22;;
20154;SDS011;10238;49.556;10.956;2023-03-12T02:12:29;14.55;;;7.07;;
20154;SDS011;10238;49.556;10.956;2023-03-12T02:15:18;9.90;;;5.85;;
20154;SDS011;10238;49.556;10.956;2023-03-12T02:18:08;8.40;;;5.32;;
20154;SDS011;10238;49.556;10.956;2023-03-12T02:21:03;7.32;;;5.13;;
20154;SDS011;10238;49.556;10.956;2023-03-12T02:23:58;8.98;;;5.15;;
20154;SDS011;10238;49.556;10.956;2023-03-12T02:26:52;9.25;;;5.93;;
20154;SDS011;10238;49.556;10.956;2023-03-12T02:29:44;7.45;;;5.00;;
20154;SDS011;10238;49.556;10.956;2023-03-12T02:32:35;9.60;;;4.95;;
20154;SDS011;10238;49.556;10.956;2023-03-12T02:35:26;9.60;;;6.25;;
20154;SDS011;10238;49.556;10.956;2023-03-12T02:41:28;9.55;;;5.57;;
20154;SDS011;10238;49.556;10.956;2023-03-12T02:44:23;8.20;;;5.40;;
20154;SDS011;10238;49.556;10.956;2023-03-12T02:47:14;8.23;;;5.75;;
20154;SDS011;10238;49.556;10.956;2023-03-12T02:50:02;13.93;;;6.60;;
20154;SDS011;10238;49.556;10.956;2023-03-12T02:52:50;7.88;;;5.25;;
20154;SDS011;10238;49.556;10.956;2023-03-12T02:55:39;10.77;;;5.93;;
20154;SDS011;10238;49.556;10.956;2023-03-12T02:58:27;12.43;;;6.13;;
20154;SDS011;10238;49.556;10.956;2023-03-12T03:01:19;11.65;;;6.05;;
20154;SDS011;10238;49.556;10.956;2023-03-12T03:04:08;11.55;;;6.47;;
20154;SDS011;10238;49.556;10.956;2023-03-12T03:06:57;10.00;;;5.85;;
20154;SDS011;10238;49.556;10.956;2023-03-12T03:09:46;11.70;;;7.28;;
20154;SDS011;10238;49.556;10.956;2023-03-12T03:12:35;11.90;;;7.13;;
20154;SDS011;10238;49.556;10.956;2023-03-12T03:15:24;8.27;;;5.47;;
20154;SDS011;10238;49.556;10.956;2023-03-12T03:18:13;11.48;;;6.03;;
20154;SDS011;10238;49.556;10.956;2023-03-12T03:21:02;10.25;;;6.70;;
20154;SDS011;10238;49.556;10.956;2023-03-12T03:23:51;10.05;;;6.05;;
20154;SDS011;10238;49.556;10.956;2023-03-12T03:26:39;13.00;;;7.07;;
20154;SDS011;10238;49.556;10.956;2023-03-12T03:29:28;11.13;;;5.63;;
20154;SDS011;10238;49.556;10.956;2023-03-12T03:32:16;10.88;;;5.88;;
20154;SDS011;10238;49.556;10.956;2023-03-12T03:35:06;7.40;;;5.30;;
20154;SDS011;10238;49.556;10.956;2023-03-12T03:37:55;8.27;;;5.78;;
20154;SDS011;10238;49.556;10.956;2023-03-12T03:40:44;9.02;;;6.13;;
20154;SDS011;10238;49.556;10.956;2023-03-12T03:43:33;10.63;;;6.75;;
20154;SDS011;10238;49.556;10.956;2023-03-12T03:46:20;12.05;;;7.13;;
20154;SDS011;10238;49.556;10.956;2023-03-12T03:49:09;9.88;;;6.18;;
20154;SDS011;10238;49.556;10.956;2023-03-12T03:51:58;6.93;;;4.68;;
20154;SDS011;10238;49.556;10.956;2023-03-12T03:54:48;9.60;;;5.40;;
20154;SDS011;10238;49.556;10.956;2023-03-12T03:57:38;11.88;;;6.03;;
20154;SDS011;10238;49.556;10.956;2023-03-12T04:00:26;9.55;;;5.75;;
20154;SDS011;10238;49.556;10.956;2023-03-12T04:03:17;10.10;;;6.35;;
20154;SDS011;10238;49.556;10.956;2023-03-12T04:06:06;11.68;;;5.78;;
20154;SDS011;10238;49.556;10.956;2023-03-12T04:08:55;7.55;;;5.07;;
20154;SDS011;10238;49.556;10.956;2023-03-12T04:11:44;8.90;;;5.90;;
20154;SDS011;10238;49.556;10.956;2023-03-12T04:14:38;8.38;;;5.45;;
20154;SDS011;10238;49.556;10.956;2023-03-12T04:18:20;10.23;;;6.15;;
20154;SDS011;10238;49.556;10.956;2023-03-12T04:21:52;11.45;;;6.63;;
20154;SDS011;10238;49.556;10.956;2023-03-12T04:24:41;8.23;;;5.60;;
20154;SDS011;10238;49.556;10.956;2023-03-12T04:27:32;12.20;;;5.78;;
20154;SDS011;10238;49.556;10.956;2023-03-12T04:30:20;9.13;;;5.80;;
20154;SDS011;10238;49.556;10.956;2023-03-12T04:33:08;11.43;;;6.72;;
20154;SDS011;10238;49.556;10.956;2023-03-12T04:35:56;14.60;;;6.80;;
20154;SDS011;10238;49.556;10.956;2023-03-12T04:38:44;8.25;;;5.78;;
20154;SDS011;10238;49.556;10.956;2023-03-12T04:41:34;10.93;;;5.97;;
20154;SDS011;10238;49.556;10.956;2023-03-12T04:44:23;10.27;;;6.22;;
20154;SDS011;10238;49.556;10.956;2023-03-12T04:47:11;11.68;;;6.10;;
20154;SDS011;10238;49.556;10.956;2023-03-12T04:49:59;8.38;;;5.13;;
20154;SDS011;10238;49.556;10.956;2023-03-12T04:52:47;7.60;;;4.63;;
20154;SDS011;10238;49.556;10.956;2023-03-12T04:55:35;8.43;;;5.25;;
20154;SDS011;10238;49.556;10.956;2023-03-12T04:58:25;9.23;;;5.32;;
20154;SDS011;10238;49.556;10.956;2023-03-12T05:01:18;13.85;;;6.80;;
20154;SDS011;10238;49.556;10.956;2023-03-12T05:04:09;7.85;;;5.35;;
20154;SDS011;10238;49.556;10.956;2023-03-12T05:07:00;6.95;;;5.18;;
20154;SDS011;10238;49.556;10.956;2023-03-12T05:09:51;8.15;;;5.10;;
20154;SDS011;10238;49.556;10.956;2023-03-12T05:12:39;7.97;;;5.18;;
20154;SDS011;10238;49.556;10.956;2023-03-12T05:15:30;9.43;;;5.75;;
20154;SDS011;10238;49.556;10.956;2023-03-12T05:18:21;8.85;;;4.88;;
20154;SDS011;10238;49.556;10.956;2023-03-12T05:21:11;6.43;;;4.65;;
20154;SDS011;10238;49.556;10.956;2023-03-12T05:24:02;7.53;;;5.07;;
20154;SDS011;10238;49.556;10.956;2023-03-12T05:26:52;7.70;;;5.30;;
20154;SDS011;10238;49.556;10.956;2023-03-12T05:29:40;8.95;;;5.50;;
20154;SDS011;10238;49.556;10.956;2023-03-12T05:32:30;7.53;;;4.90;;
20154;SDS011;10238;49.556;10.956;2023-03-12T05:35:18;7.70;;;4.95;;
20154;SDS011;10238;49.556;10.956;2023-03-12T05:38:06;9.73;;;5.25;;
20154;SDS011;10238;49.556;10.956;2023-03-12T05:40:55;8.70;;;5.75;;
20154;SDS011;10238;49.556;10.956;2023-03-12T05:43:44;7.28;;;4.97;;
20154;SDS011;10238;49.556;10.956;2023-03-12T05:46:35;8.40;;;5.18;;
20154;SDS011;10238;49.556;10.956;2023-03-12T05:49:25;8.50;;;5.10;;
20154;SDS011;10238;49.556;10.956;2023-03-12T05:52:13;6.50;;;5.03;;
20154;SDS011;10238;49.556;10.956;2023-03-12T05:55:01;10.00;;;6.20;;
20154;SDS011;10238;49.556;10.956;2023-03-12T05:57:50;8.57;;;5.82;;
20154;SDS011;10238;49.556;10.956;2023-03-12T06:00:44;10.13;;;6.30;;
20154;SDS011;10238;49.556;10.956;2023-03-12T06:03:52;9.13;;;5.15;;
20154;SDS011;10238;49.556;10.956;2023-03-12T06:06:42;8.20;;;5.05;;
20154;SDS011;10238;49.556;10.956;2023-03-12T06:09:30;10.48;;;6.00;;
20154;SDS011;10238;49.556;10.956;2023-03-12T06:12:18;10.02;;;5.38;;
20154;SDS011;10238;49.556;10.956;2023-03-12T06:15:07;6.97;;;4.82;;
20154;SDS011;10238;49.556;10.956;2023-03-12T06:17:55;10.60;;;6.18;;
20154;SDS011;10238;49.556;10.956;2023-03-12T06:20:44;12.75;;;5.97;;
20154;SDS011;10238;49.556;10.956;2023-03-12T06:23:35;9.85;;;5.93;;
20154;SDS011;10238;49.556;10.956;2023-03-12T06:26:23;8.00;;;6.00;;
20154;SDS011;10238;49.556;10.956;2023-03-12T06:29:14;9.80;;;5.45;;
20154;SDS011;10238;49.556;10.956;2023-03-12T06:32:02;8.88;;;5.63;;
20154;SDS011;10238;49.556;10.956;2023-03-12T06:34:51;10.63;;;6.38;;
20154;SDS011;10238;49.556;10.956;2023-03-12T06:37:42;6.78;;;5.30;;
20154;SDS011;10238;49.556;10.956;2023-03-12T06:40:32;7.50;;;5.13;;
20154;SDS011;10238;49.556;10.956;2023-03-12T06:43:23;11.10;;;7.10;;
20154;SDS011;10238;49.556;10.956;2023-03-12T06:46:14;8.75;;;5.85;;
20154;SDS011;10238;49.556;10.956;2023-03-12T06:49:06;9.25;;;5.88;;
20154;SDS011;10238;49.556;10.956;2023-03-12T06:51:58;9.05;;;5.65;;
20154;SDS011;10238;49.556;10.956;2023-03-12T06:54:46;10.23;;;5.93;;
20154;SDS011;10238;49.556;10.956;2023-03-12T06:57:38;11.57;;;5.97;;
20154;SDS011;10238;49.556;10.956;2023-03-12T07:00:54;11.98;;;6.35;;
20154;SDS011;10238;49.556;10.956;2023-03-12T07:03:43;13.55;;;5.80;;
20154;SDS011;10238;49.556;10.956;2023-03-12T07:06:32;9.10;;;5.88;;
20154;SDS011;10238;49.556;10.956;2023-03-12T07:09:20;9.65;;;5.72;;
20154;SDS011;10238;49.556;10.956;2023-03-12T07:12:08;8.43;;;5.93;;
20154;SDS011;10238;49.556;10.956;2023-03-12T07:14:58;11.80;;;6.22;;
20154;SDS011;10238;49.556;10.956;2023-03-12T07:17:47;9.48;;;5.82;;
20154;SDS011;10238;49.556;10.956;2023-03-12T07:20:35;14.73;;;5.88;;
20154;SDS011;10238;49.556;10.956;2023-03-12T07:23:24;10.70;;;6.00;;
20154;SDS011;10238;49.556;10.956;2023-03-12T07:26:13;8.15;;;5.32;;
20154;SDS011;10238;49.556;10.956;2023-03-12T07:29:01;10.77;;;6.45;;
20154;SDS011;10238;49.556;10.956;2023-03-12T07:31:50;12.45;;;7.82;;
20154;SDS011;10238;49.556;10.956;2023-03-12T07:34:38;13.35;;;6.45;;
20154;SDS011;10238;49.556;10.956;2023-03-12T07:37:26;10.10;;;6.28;;
20154;SDS011;10238;49.556;10.956;2023-03-12T07:40:14;25.20;;;10.02;;
20154;SDS011;10238;49.556;10.956;2023-03-12T07:43:02;9.32;;;5.85;;
20154;SDS011;10238;49.556;10.956;2023-03-12T07:45:55;9.07;;;5.00;;
20154;SDS011;10238;49.556;10.956;2023-03-12T07:48:45;8.60;;;5.50;;
20154;SDS011;10238;49.556;10.956;2023-03-12T07:51:33;8.40;;;5.13;;
20154;SDS011;10238;49.556;10.956;2023-03-12T07:54:21;7.85;;;4.95;;
20154;SDS011;10238;49.556;10.956;2023-03-12T08:00:03;9.40;;;5.18;;
20154;SDS011;10238;49.556;10.956;2023-03-12T08:02:53;8.40;;;5.43;;
20154;SDS011;10238;49.556;10.956;2023-03-12T08:05:42;7.97;;;4.60;;
20154;SDS011;10238;49.556;10.956;2023-03-12T08:08:31;7.85;;;4.97;;
20154;SDS011;10238;49.556;10.956;2023-03-12T08:11:20;5.40;;;4.10;;
20154;SDS011;10238;49.556;10.956;2023-03-12T08:14:08;7.57;;;4.85;;
20154;SDS011;10238;49.556;10.956;2023-03-12T08:16:57;9.15;;;4.47;;
20154;SDS011;10238;49.556;10.956;2023-03-12T08:19:45;10.82;;;4.85;;
20154;SDS011;10238;49.556;10.956;2023-03-12T08:22:35;9.52;;;4.43;;
20154;SDS011;10238;49.556;10.956;2023-03-12T08:25:26;5.00;;;4.15;;
20154;SDS011;10238;49.556;10.956;2023-03-12T08:28:15;8.18;;;4.50;;
20154;SDS011;10238;49.556;10.956;2023-03-12T08:31:05;6.38;;;4.22;;
20154;SDS011;10238;49.556;10.956;2023-03-12T08:33:53;6.05;;;4.68;;
20154;SDS011;10238;49.556;10.956;2023-03-12T08:36:42;10.13;;;4.97;;
20154;SDS011;10238;49.556;10.956;2023-03-12T08:39:32;6.22;;;4.10;;
20154;SDS011;10238;49.556;10.956;2023-03-12T08:42:20;6.28;;;4.65;;
20154;SDS011;10238;49.556;10.956;2023-03-12T08:45:08;6.00;;;4.63;;
20154;SDS011;10238;49.556;10.956;2023-03-12T08:47:57;8.98;;;4.75;;
20154;SDS011;10238;49.556;10.956;2023-03-12T08:50:46;8.77;;;5.18;;
20154;SDS011;10238;49.556;10.956;2023-03-12T08:53:34;6.55;;;4.75;;
20154;SDS011;10238;49.556;10.956;2023-03-12T08:56:24;7.55;;;4.40;;
20154;SDS011;10238;49.556;10.956;2023-03-12T08:59:12;8.07;;;4.35;;
20154;SDS011;10238;49.556;10.956;2023-03-12T09:02:00;7.43;;;4.68;;
20154;SDS011;10238;49.556;10.956;2023-03-12T09:04:48;10.13;;;5.32;;
20154;SDS011;10238;49.556;10.956;2023-03-12T09:07:36;6.30;;;4.30;;
20154;SDS011;10238;49.556;10.956;2023-03-12T09:10:24;7.47;;;4.43;;
20154;SDS011;10238;49.556;10.956;2023-03-12T09:13:16;7.03;;;4.43;;
20154;SDS011;10238;49.556;10.956;2023-03-12T09:16:05;6.32;;;4.90;;
20154;SDS011;10238;49.556;10.956;2023-03-12T09:18:54;6.90;;;4.65;;
20154;SDS011;10238;49.556;10.956;2023-03-12T09:21:41;6.78;;;4.90;;
20154;SDS011;10238;49.556;10.956;2023-03-12T09:24:30;7.32;;;4.97;;
20154;SDS011;10238;49.556;10.956;2023-03-12T09:27:17;7.20;;;4.80;;
20154;SDS011;10238;49.556;10.956;2023-03-12T09:30:08;10.15;;;5.35;;
20154;SDS011;10238;49.556;10.956;2023-03-12T09:32:58;6.35;;;5.28;;
20154;SDS011;10238;49.556;10.956;2023-03-12T09:35:54;6.85;;;5.50;;
20154;SDS011;10238;49.556;10.956;2023-03-12T09:38:43;10.40;;;5.07;;
20154;SDS011;10238;49.556;10.956;2023-03-12T09:41:34;8.55;;;5.13;;
20154;SDS011;10238;49.556;10.956;2023-03-12T09:44:28;8.70;;;4.45;;
20154;SDS011;10238;49.556;10.956;2023-03-12T09:47:25;6.32;;;4.47;;
20154;SDS011;10238;49.556;10.956;2023-03-12T09:50:18;8.95;;;5.40;;
20154;SDS011;10238;49.556;10.956;2023-03-12T09:53:13;6.20;;;5.13;;
20154;SDS011;10238;49.556;10.956;2023-03-12T09:56:09;6.53;;;4.43;;
20154;SDS011;10238;49.556;10.956;2023-03-12T09:59:02;6.50;;;4.38;;
20154;SDS011;10238;49.556;10.956;2023-03-12T10:01:58;7.63;;;4.05;;
20154;SDS011;10238;49.556;10.956;2023-03-12T10:04:53;9.57;;;4.65;;
20154;SDS011;10238;49.556;10.956;2023-03-12T10:07:59;7.85;;;4.45;;
20154;SDS011;10238;49.556;10.956;2023-03-12T10:11:13;5.35;;;3.80;;
20154;SDS011;10238;49.556;10.956;2023-03-12T10:14:26;5.90;;;3.90;;
20154;SDS011;10238;49.556;10.956;2023-03-12T10:17:28;4.45;;;4.00;;
20154;SDS011;10238;49.556;10.956;2023-03-12T10:20:40;6.72;;;3.53;;
20154;SDS011;10238;49.556;10.956;2023-03-12T10:23:51;5.50;;;3.60;;
20154;SDS011;10238;49.556;10.956;2023-03-12T10:26:54;7.60;;;3.78;;
20154;SDS011;10238;49.556;10.956;2023-03-12T10:29:43;7.97;;;4.45;;
20154;SDS011;10238;49.556;10.956;2023-03-12T10:32:35;5.72;;;3.80;;
20154;SDS011;10238;49.556;10.956;2023-03-12T10:35:27;5.05;;;4.18;;
20154;SDS011;10238;49.556;10.956;2023-03-12T10:38:19;9.02;;;4.38;;
20154;SDS011;10238;49.556;10.956;2023-03-12T10:41:24;4.70;;;4.10;;
20154;SDS011;10238;49.556;10.956;2023-03-12T10:44:21;6.28;;;4.03;;
20154;SDS011;10238;49.556;10.956;2023-03-12T10:47:17;5.50;;;3.70;;
20154;SDS011;10238;49.556;10.956;2023-03-12T10:50:18;5.13;;;3.17;;
20154;SDS011;10238;49.556;10.956;2023-03-12T10:53:13;5.22;;;3.20;;
20154;SDS011;10238;49.556;10.956;2023-03-12T10:56:14;6.10;;;3.67;;
20154;SDS011;10238;49.556;10.956;2023-03-12T10:59:04;6.43;;;3.97;;
20154;SDS011;10238;49.556;10.956;2023-03-12T11:02:27;7.88;;;3.53;;
20154;SDS011;10238;49.556;10.956;2023-03-12T11:05:20;5.03;;;3.60;;
20154;SDS011;10238;49.556;10.956;2023-03-12T11:08:17;6.63;;;3.97;;
20154;SDS011;10238;49.556;10.956;2023-03-12T11:11:09;7.35;;;3.83;;
20154;SDS011;10238;49.556;10.956;2023-03-12T11:14:05;5.30;;;4.13;;
20154;SDS011;10238;49.556;10.956;2023-03-12T11:17:00;5.50;;;3.30;;
20154;SDS011;10238;49.556;10.956;2023-03-12T11:20:17;8.85;;;3.42;;
20154;SDS011;10238;49.556;10.956;2023-03-12T11:23:12;8.70;;;4.30;;
20154;SDS011;10238;49.556;10.956;2023-03-12T11:26:02;9.50;;;4.22;;
20154;SDS011;10238;49.556;10.956;2023-03-12T11:29:00;7.22;;;4.40;;
20154;SDS011;10238;49.556;10.956;2023-03-12T11:31:56;6.30;;;4.15;;
20154;SDS011;10238;49.556;10.956;2023-03-12T11:34:51;6.65;;;3.60;;
20154;SDS011;10238;49.556;10.956;2023-03-12T11:37:47;7.90;;;3.53;;
20154;SDS011;10238;49.556;10.956;2023-03-12T11:40:52;4.50;;;3.78;;
20154;SDS011;10238;49.556;10.956;2023-03-12T11:43:54;6.75;;;3.80;;
20154;SDS011;10238;49.556;10.956;2023-03-12T11:47:05;8.80;;;4.22;;
20154;SDS011;10238;49.556;10.956;2023-03-12T11:50:07;6.55;;;4.10;;
20154;SDS011;10238;49.556;10.956;2023-03-12T11:53:18;7.43;;;4.07;;
20154;SDS011;10238;49.556;10.956;2023-03-12T11:56:20;6.47;;;4.05;;
20154;SDS011;10238;49.556;10.956;2023-03-12T11:59:26;5.18;;;3.72;;
20154;SDS011;10238;49.556;10.956;2023-03-12T12:02:35;4.47;;;3.65;;
20154;SDS011;10238;49.556;10.956;2023-03-12T12:05:46;5.00;;;3.70;;
20154;SDS011;10238;49.556;10.956;2023-03-12T12:09:06;4.37;;;3.97;;
20154;SDS011;10238;49.556;10.956;2023-03-12T12:12:05;5.93;;;3.58;;
20154;SDS011;10238;49.556;10.956;2023-03-12T12:15:12;8.55;;;4.47;;
20154;SDS011;10238;49.556;10.956;2023-03-12T12:18:17;8.25;;;4.00;;
20154;SDS011;10238;49.556;10.956;2023-03-12T12:21:22;5.75;;;3.60;;
20154;SDS011;10238;49.556;10.956;2023-03-12T12:24:39;6.53;;;3.30;;
20154;SDS011;10238;49.556;10.956;2023-03-12T12:27:50;6.25;;;4.20;;
20154;SDS011;10238;49.556;10.956;2023-03-12T12:30:53;5.45;;;3.92;;
20154;SDS011;10238;49.556;10.956;2023-03-12T12:33:54;5.82;;;3.90;;
20154;SDS011;10238;49.556;10.956;2023-03-12T12:37:11;7.20;;;4.00;;
20154;SDS011;10238;49.556;10.956;2023-03-12T12:40:15;6.85;;;3.97;;
20154;SDS011;10238;49.556;10.956;2023-03-12T12:43:15;7.13;;;5.00;;
20154;SDS011;10238;49.556;10.956;2023-03-12T12:46:15;4.30;;;3.50;;
20154;SDS011;10238;49.556;10.956;2023-03-12T12:49:07;5.40;;;4.07;;
20154;SDS011;10238;49.556;10.956;2023-03-12T12:52:00;5.55;;;4.20;;
20154;SDS011;10238;49.556;10.956;2023-03-12T12:54:54;4.70;;;3.88;;
20154;SDS011;10238;49.556;10.956;2023-03-12T12:57:53;9.48;;;5.43;;
20154;SDS011;10238;49.556;10.956;2023-03-12T13:00:48;6.45;;;5.18;;
20154;SDS011;10238;49.556;10.956;2023-03-12T13:03:41;6.80;;;4.43;;
20154;SDS011;10238;49.556;10.956;2023-03-12T13:09:43;6.68;;;5.03;;
20154;SDS011;10238;49.556;10.956;2023-03-12T13:12:40;5.63;;;4.53;;
20154;SDS011;10238;49.556;10.956;2023-03-12T13:15:36;5.60;;;4.78;;
20154;SDS011;10238;49.556;10.956;2023-03-12T13:18:28;6.67;;;4.80;;
20154;SDS011;10238;49.556;10.956;2023-03-12T13:21:20;5.68;;;4.28;;
20154;SDS011;10238;49.556;10.956;2023-03-12T13:24:16;9.40;;;4.68;;
20154;SDS011;10238;49.556;10.956;2023-03-12T13:27:10;6.28;;;4.63;;
20154;SDS011;10238;49.556;10.956;2023-03-12T13:30:26;6.07;;;5.03;;
20154;SDS011;10238;49.556;10.956;2023-03-12T13:33:39;8.10;;;5.03;;
20154;SDS011;10238;49.556;10.956;2023-03-12T13:36:31;7.32;;;4.72;;
20154;SDS011;10238;49.556;10.956;2023-03-12T13:39:26;7.60;;;5.35;;
20154;SDS011;10238;49.556;10.956;2023-03-12T13:42:32;7.22;;;5.75;;
20154;SDS011;10238;49.556;10.956;2023-03-12T13:45:27;8.55;;;5.20;;
20154;SDS011;10238;49.556;10.956;2023-03-12T13:48:17;9.45;;;5.18;;
20154;SDS011;10238;49.556;10.956;2023-03-12T13:51:09;11.45;;;5.60;;
20154;SDS011;10238;49.556;10.956;2023-03-12T13:54:03;10.20;;;4.72;;
20154;SDS011;10238;49.556;10.956;2023-03-12T13:56:56;8.60;;;5.35;;
20154;SDS011;10238;49.556;10.956;2023-03-12T13:59:47;5.82;;;5.00;;
20154;SDS011;10238;49.556;10.956;2023-03-12T14:02:39;6.38;;;5.28;;
20154;SDS011;10238;49.556;10.956;2023-03-12T14:05:42;9.02;;;5.22;;
20154;SDS011;10238;49.556;10.956;2023-03-12T14:08:40;5.82;;;4.32;;
20154;SDS011;10238;49.556;10.956;2023-03-12T14:11:42;6.88;;;5.47;;
20154;SDS011;10238;49.556;10.956;2023-03-12T14:14:48;7.70;;;4.57;;
20154;SDS011;10238;49.556;10.956;2023-03-12T14:17:58;6.10;;;4.72;;
20154;SDS011;10238;49.556;10.956;2023-03-12T14:20:51;5.23;;;4.70;;
20154;SDS011;10238;49.556;10.956;2023-03-12T14:23:43;6.22;;;4.60;;
20154;SDS011;10238;49.556;10.956;2023-03-12T14:26:35;10.43;;;5.20;;
20154;SDS011;10238;49.556;10.956;2023-03-12T14:29:26;7.80;;;4.70;;
20154;SDS011;10238;49.556;10.956;2023-03-12T14:32:18;5.32;;;4.13;;
20154;SDS011;10238;49.556;10.956;2023-03-12T14:35:12;5.90;;;4.63;;
20154;SDS011;10238;49.556;10.956;2023-03-12T14:38:05;6.03;;;4.70;;
20154;SDS011;10238;49.556;10.956;2023-03-12T14:40:59;8.63;;;5.13;;
20154;SDS011;10238;49.556;10.956;2023-03-12T14:43:51;5.97;;;4.68;;
20154;SDS011;10238;49.556;10.956;2023-03-12T14:46:45;6.15;;;4.88;;
20154;SDS011;10238;49.556;10.956;2023-03-12T14:49:43;7.90;;;4.93;;
20154;SDS011;10238;49.556;10.956;2023-03-12T14:52:32;7.57;;;4.57;;
20154;SDS011;10238;49.556;10.956;2023-03-12T14:55:20;4.20;;;3.58;;
20154;SDS011;10238;49.556;10.956;2023-03-12T14:58:14;5.55;;;4.70;;
20154;SDS011;10238;49.556;10.956;2023-03-12T15:01:04;4.93;;;3.88;;
20154;SDS011;10238;49.556;10.956;2023-03-12T15:04:00;5.15;;;3.33;;
20154;SDS011;10238;49.556;10.956;2023-03-12T15:06:51;4.90;;;3.80;;
20154;SDS011;10238;49.556;10.956;2023-03-12T15:09:42;5.25;;;4.03;;
20154;SDS011;10238;49.556;10.956;2023-03-12T15:12:35;4.50;;;3.85;;
20154;SDS011;10238;49.556;10.956;2023-03-12T15:15:34;5.40;;;3.63;;
20154;SDS011;10238;49.556;10.956;2023-03-12T15:18:26;4.22;;;3.58;;
20154;SDS011;10238;49.556;10.956;2023-03-12T15:21:18;4.63;;;3.30;;
20154;SDS011;10238;49.556;10.956;2023-03-12T15:24:08;5.03;;;3.40;;
20154;SDS011;10238;49.556;10.956;2023-03-12T15:26:58;3.95;;;3.55;;
20154;SDS011;10238;49.556;10.956;2023-03-12T15:30:22;4.88;;;3.38;;
20154;SDS011;10238;49.556;10.956;2023-03-12T15:33:20;4.40;;;3.28;;
20154;SDS011;10238;49.556;10.956;2023-03-12T15:36:23;6.53;;;3.85;;
20154;SDS011;10238;49.556;10.956;2023-03-12T15:39:24;4.40;;;3.38;;
20154;SDS011;10238;49.556;10.956;2023-03-12T15:42:15;6.03;;;4.10;;
20154;SDS011;10238;49.556;10.956;2023-03-12T15:45:13;6.15;;;3.63;;
20154;SDS011;10238;49.556;10.956;2023-03-12T15:48:11;4.72;;;3.95;;
20154;SDS011;10238;49.556;10.956;2023-03-12T15:54:04;4.95;;;3.58;;
20154;SDS011;10238;49.556;10.956;2023-03-12T15:57:14;6.07;;;4.20;;
20154;SDS011;10238;49.556;10.956;2023-03-12T16:00:15;8.32;;;4.18;;
20154;SDS011;10238;49.556;10.956;2023-03-12T16:03:14;4.82;;;3.67;;
20154;SDS011;10238;49.556;10.956;2023-03-12T16:06:02;4.88;;;4.32;;
20154;SDS011;10238;49.556;10.956;2023-03-12T16:08:52;7.00;;;4.90;;
20154;SDS011;10238;49.556;10.956;2023-03-12T16:11:44;4.88;;;4.47;;
20154;SDS011;10238;49.556;10.956;2023-03-12T16:14:33;5.53;;;5.05;;
20154;SDS011;10238;49.556;10.956;2023-03-12T16:17:21;5.30;;;4.25;;
20154;SDS011;10238;49.556;10.956;2023-03-12T16:20:11;5.63;;;4.68;;
20154;SDS011;10238;49.556;10.956;2023-03-12T16:23:02;7.67;;;4.77;;
20154;SDS011;10238;49.556;10.956;2023-03-12T16:25:50;4.30;;;3.90;;
20154;SDS011;10238;49.556;10.956;2023-03-12T16:28:42;3.30;;;3.00;;
20154;SDS011;10238;49.556;10.956;2023-03-12T16:31:30;5.22;;;3.58;;
20154;SDS011;10238;49.556;10.956;2023-03-12T16:34:18;5.50;;;4.03;;
20154;SDS011;10238;49.556;10.956;2023-03-12T16:37:07;5.82;;;2.95;;
20154;SDS011;10238;49.556;10.956;2023-03-12T16:39:56;4.47;;;2.90;;
20154;SDS011;10238;49.556;10.956;2023-03-12T16:42:45;5.25;;;3.20;;
20154;SDS011;10238;49.556;10.956;2023-03-12T16:45:36;5.45;;;3.50;;
20154;SDS011;10238;49.556;10.956;2023-03-12T16:48:30;4.18;;;3.13;;
20154;SDS011;10238;49.556;10.956;2023-03-12T16:51:18;5.30;;;2.92;;
20154;SDS011;10238;49.556;10.956;2023-03-12T16:54:06;9.32;;;5.53;;
20154;SDS011;10238;49.556;10.956;2023-03-12T16:56:56;7.05;;;3.45;;
20154;SDS011;10238;49.556;10.956;2023-03-12T16:59:44;8.55;;;5.10;;
20154;SDS011;10238;49.556;10.956;2023-03-12T17:02:34;7.32;;;4.35;;
20154;SDS011;10238;49.556;10.956;2023-03-12T17:05:22;5.60;;;3.80;;
20154;SDS011;10238;49.556;10.956;2023-03-12T17:08:09;5.50;;;4.00;;
20154;SDS011;10238;49.556;10.956;2023-03-12T17:10:57;9.05;;;4.90;;
20154;SDS011;10238;49.556;10.956;2023-03-12T17:13:46;10.23;;;5.85;;
20154;SDS011;10238;49.556;10.956;2023-03-12T17:16:37;7.93;;;5.78;;
20154;SDS011;10238;49.556;10.956;2023-03-12T17:19:26;7.72;;;5.00;;
20154;SDS011;10238;49.556;10.956;2023-03-12T17:22:14;6.65;;;5.22;;